sensor_id;sensor_type;location;lat;lon;timestamp;P1;durP1;ratioP1;P2;durP2;ratioP2
20697;SDS011;10508;50.956;4.640;2022-07-18T00:01:41;2.72;;;1.60;;
20697;SDS011;10508;50.956;4.640;2022-07-18T00:04:06;2.63;;;1.42;;
20697;SDS011;10508;50.956;4.640;2022-07-18T00:06:32;4.13;;;1.60;;
20697;SDS011;10508;50.956;4.640;2022-07-18T00:08:58;3.75;;;1.83;;
20697;SDS011;10508;50.956;4.640;2022-07-18T00:11:23;2.63;;;1.60;;
20697;SDS011;10508;50.956;4.640;2022-07-18T00:13:49;3.00;;;1.50;;
20697;SDS011;10508;50.956;4.640;2022-07-18T00:16:16;5.75;;;1.98;;
20697;SDS011;10508;50.956;4.640;2022-07-18T00:18:43;3.33;;;1.60;;
20697;SDS011;10508;50.956;4.640;2022-07-18T00:21:09;4.20;;;1.73;;
20697;SDS011;10508;50.956;4.640;2022-07-18T00:23:35;3.70;;;2.00;;
20697;SDS011;10508;50.956;4.640;2022-07-18T00:26:02;4.65;;;1.85;;
20697;SDS011;10508;50.956;4.640;2022-07-18T00:28:28;3.95;;;2.08;;
20697;SDS011;10508;50.956;4.640;2022-07-18T00:30:54;10.48;;;2.13;;
20697;SDS011;10508;50.956;4.640;2022-07-18T00:33:20;6.20;;;1.27;;
20697;SDS011;10508;50.956;4.640;2022-07-18T00:35:45;4.05;;;1.45;;
20697;SDS011;10508;50.956;4.640;2022-07-18T00:38:16;2.08;;;1.40;;
20697;SDS011;10508;50.956;4.640;2022-07-18T00:40:41;2.92;;;1.63;;
20697;SDS011;10508;50.956;4.640;2022-07-18T00:43:07;3.75;;;1.80;;
20697;SDS011;10508;50.956;4.640;2022-07-18T00:45:33;2.65;;;1.50;;
20697;SDS011;10508;50.956;4.640;2022-07-18T00:47:58;2.65;;;1.48;;
20697;SDS011;10508;50.956;4.640;2022-07-18T00:50:30;5.60;;;1.75;;
20697;SDS011;10508;50.956;4.640;2022-07-18T00:52:56;3.50;;;1.65;;
20697;SDS011;10508;50.956;4.640;2022-07-18T00:55:27;2.53;;;1.15;;
20697;SDS011;10508;50.956;4.640;2022-07-18T00:57:53;4.78;;;1.48;;
20697;SDS011;10508;50.956;4.640;2022-07-18T01:00:21;1.70;;;1.20;;
20697;SDS011;10508;50.956;4.640;2022-07-18T01:03:05;3.20;;;1.35;;
20697;SDS011;10508;50.956;4.640;2022-07-18T01:05:31;4.80;;;1.20;;
20697;SDS011;10508;50.956;4.640;2022-07-18T01:07:56;2.15;;;1.30;;
20697;SDS011;10508;50.956;4.640;2022-07-18T01:10:22;3.15;;;1.30;;
20697;SDS011;10508;50.956;4.640;2022-07-18T01:12:48;4.63;;;1.50;;
20697;SDS011;10508;50.956;4.640;2022-07-18T01:15:14;2.53;;;1.65;;
20697;SDS011;10508;50.956;4.640;2022-07-18T01:17:40;6.00;;;1.67;;
20697;SDS011;10508;50.956;4.640;2022-07-18T01:20:06;5.57;;;1.38;;
20697;SDS011;10508;50.956;4.640;2022-07-18T01:22:32;5.90;;;1.65;;
20697;SDS011;10508;50.956;4.640;2022-07-18T01:24:58;2.25;;;1.20;;
20697;SDS011;10508;50.956;4.640;2022-07-18T01:27:24;2.83;;;1.70;;
20697;SDS011;10508;50.956;4.640;2022-07-18T01:29:51;4.53;;;1.50;;
20697;SDS011;10508;50.956;4.640;2022-07-18T01:32:18;2.40;;;1.40;;
20697;SDS011;10508;50.956;4.640;2022-07-18T01:34:45;6.28;;;1.52;;
20697;SDS011;10508;50.956;4.640;2022-07-18T01:37:12;2.63;;;1.40;;
20697;SDS011;10508;50.956;4.640;2022-07-18T01:39:38;4.93;;;1.85;;
20697;SDS011;10508;50.956;4.640;2022-07-18T01:42:05;2.45;;;1.60;;
20697;SDS011;10508;50.956;4.640;2022-07-18T01:44:32;2.42;;;1.30;;
20697;SDS011;10508;50.956;4.640;2022-07-18T01:46:59;6.78;;;1.75;;
20697;SDS011;10508;50.956;4.640;2022-07-18T01:49:25;2.60;;;1.50;;
20697;SDS011;10508;50.956;4.640;2022-07-18T01:51:52;5.10;;;1.50;;
20697;SDS011;10508;50.956;4.640;2022-07-18T01:54:19;2.42;;;1.27;;
20697;SDS011;10508;50.956;4.640;2022-07-18T01:56:46;2.80;;;1.40;;
20697;SDS011;10508;50.956;4.640;2022-07-18T01:59:11;3.15;;;1.33;;
20697;SDS011;10508;50.956;4.640;2022-07-18T02:01:37;3.60;;;1.80;;
20697;SDS011;10508;50.956;4.640;2022-07-18T02:04:03;2.05;;;1.50;;
20697;SDS011;10508;50.956;4.640;2022-07-18T02:06:29;5.55;;;1.85;;
20697;SDS011;10508;50.956;4.640;2022-07-18T02:08:55;4.55;;;1.58;;
20697;SDS011;10508;50.956;4.640;2022-07-18T02:11:20;2.75;;;1.42;;
20697;SDS011;10508;50.956;4.640;2022-07-18T02:13:46;5.20;;;2.03;;
20697;SDS011;10508;50.956;4.640;2022-07-18T02:16:12;2.67;;;1.38;;
20697;SDS011;10508;50.956;4.640;2022-07-18T02:18:37;3.90;;;1.88;;
20697;SDS011;10508;50.956;4.640;2022-07-18T02:21:03;2.35;;;1.48;;
20697;SDS011;10508;50.956;4.640;2022-07-18T02:23:29;5.25;;;1.95;;
20697;SDS011;10508;50.956;4.640;2022-07-18T02:25:55;2.25;;;1.65;;
20697;SDS011;10508;50.956;4.640;2022-07-18T02:28:21;2.85;;;1.90;;
20697;SDS011;10508;50.956;4.640;2022-07-18T02:30:47;5.55;;;1.80;;
20697;SDS011;10508;50.956;4.640;2022-07-18T02:33:13;3.28;;;1.63;;
20697;SDS011;10508;50.956;4.640;2022-07-18T02:35:42;3.92;;;1.40;;
20697;SDS011;10508;50.956;4.640;2022-07-18T02:38:08;3.30;;;1.77;;
20697;SDS011;10508;50.956;4.640;2022-07-18T02:40:33;2.80;;;1.77;;
20697;SDS011;10508;50.956;4.640;2022-07-18T02:42:59;2.05;;;1.40;;
20697;SDS011;10508;50.956;4.640;2022-07-18T02:45:25;3.75;;;1.80;;
20697;SDS011;10508;50.956;4.640;2022-07-18T02:47:51;2.85;;;1.27;;
20697;SDS011;10508;50.956;4.640;2022-07-18T02:50:17;4.50;;;1.73;;
20697;SDS011;10508;50.956;4.640;2022-07-18T02:52:43;2.33;;;1.75;;
20697;SDS011;10508;50.956;4.640;2022-07-18T02:55:09;3.97;;;1.70;;
20697;SDS011;10508;50.956;4.640;2022-07-18T02:57:36;5.18;;;1.70;;
20697;SDS011;10508;50.956;4.640;2022-07-18T03:00:06;8.68;;;1.38;;
20697;SDS011;10508;50.956;4.640;2022-07-18T03:02:34;3.67;;;1.90;;
20697;SDS011;10508;50.956;4.640;2022-07-18T03:04:59;3.38;;;1.90;;
20697;SDS011;10508;50.956;4.640;2022-07-18T03:07:25;3.25;;;1.80;;
20697;SDS011;10508;50.956;4.640;2022-07-18T03:09:51;3.20;;;1.70;;
20697;SDS011;10508;50.956;4.640;2022-07-18T03:12:17;3.28;;;1.80;;
20697;SDS011;10508;50.956;4.640;2022-07-18T03:14:43;4.38;;;1.48;;
20697;SDS011;10508;50.956;4.640;2022-07-18T03:17:08;1.50;;;1.17;;
20697;SDS011;10508;50.956;4.640;2022-07-18T03:19:34;9.50;;;1.65;;
20697;SDS011;10508;50.956;4.640;2022-07-18T03:22:01;2.38;;;1.50;;
20697;SDS011;10508;50.956;4.640;2022-07-18T03:24:27;1.95;;;1.30;;
20697;SDS011;10508;50.956;4.640;2022-07-18T03:26:53;4.95;;;1.63;;
20697;SDS011;10508;50.956;4.640;2022-07-18T03:29:19;3.50;;;2.05;;
20697;SDS011;10508;50.956;4.640;2022-07-18T03:31:45;5.40;;;1.85;;
20697;SDS011;10508;50.956;4.640;2022-07-18T03:34:10;2.13;;;1.48;;
20697;SDS011;10508;50.956;4.640;2022-07-18T03:36:37;3.17;;;1.70;;
20697;SDS011;10508;50.956;4.640;2022-07-18T03:39:03;8.45;;;1.75;;
20697;SDS011;10508;50.956;4.640;2022-07-18T03:41:29;2.45;;;1.50;;
20697;SDS011;10508;50.956;4.640;2022-07-18T03:43:55;6.05;;;2.28;;
20697;SDS011;10508;50.956;4.640;2022-07-18T03:46:21;4.97;;;1.85;;
20697;SDS011;10508;50.956;4.640;2022-07-18T03:48:46;3.03;;;1.55;;
20697;SDS011;10508;50.956;4.640;2022-07-18T03:51:12;4.45;;;1.70;;
20697;SDS011;10508;50.956;4.640;2022-07-18T03:53:38;4.40;;;1.80;;
20697;SDS011;10508;50.956;4.640;2022-07-18T03:56:04;5.80;;;2.08;;
20697;SDS011;10508;50.956;4.640;2022-07-18T03:58:29;2.15;;;1.60;;
20697;SDS011;10508;50.956;4.640;2022-07-18T04:00:55;5.25;;;2.13;;
20697;SDS011;10508;50.956;4.640;2022-07-18T04:03:21;5.20;;;1.73;;
20697;SDS011;10508;50.956;4.640;2022-07-18T04:05:47;6.85;;;2.10;;
20697;SDS011;10508;50.956;4.640;2022-07-18T04:08:13;4.28;;;1.83;;
20697;SDS011;10508;50.956;4.640;2022-07-18T04:10:38;5.28;;;1.90;;
20697;SDS011;10508;50.956;4.640;2022-07-18T04:13:06;6.43;;;2.40;;
20697;SDS011;10508;50.956;4.640;2022-07-18T04:15:32;3.45;;;1.92;;
20697;SDS011;10508;50.956;4.640;2022-07-18T04:17:58;5.05;;;2.05;;
20697;SDS011;10508;50.956;4.640;2022-07-18T04:20:24;4.40;;;2.42;;
20697;SDS011;10508;50.956;4.640;2022-07-18T04:25:18;3.05;;;2.10;;
20697;SDS011;10508;50.956;4.640;2022-07-18T04:27:45;5.35;;;2.15;;
20697;SDS011;10508;50.956;4.640;2022-07-18T04:30:11;7.57;;;2.20;;
20697;SDS011;10508;50.956;4.640;2022-07-18T04:32:38;6.78;;;2.33;;
20697;SDS011;10508;50.956;4.640;2022-07-18T04:35:04;5.28;;;2.30;;
20697;SDS011;10508;50.956;4.640;2022-07-18T04:37:31;5.47;;;2.15;;
20697;SDS011;10508;50.956;4.640;2022-07-18T04:39:58;3.90;;;1.90;;
20697;SDS011;10508;50.956;4.640;2022-07-18T04:42:24;5.85;;;2.25;;
20697;SDS011;10508;50.956;4.640;2022-07-18T04:44:50;4.40;;;1.92;;
20697;SDS011;10508;50.956;4.640;2022-07-18T04:47:16;5.22;;;2.17;;
20697;SDS011;10508;50.956;4.640;2022-07-18T04:49:42;6.07;;;2.10;;
20697;SDS011;10508;50.956;4.640;2022-07-18T04:52:07;4.38;;;2.20;;
20697;SDS011;10508;50.956;4.640;2022-07-18T04:54:33;9.30;;;2.00;;
20697;SDS011;10508;50.956;4.640;2022-07-18T04:56:59;5.57;;;2.28;;
20697;SDS011;10508;50.956;4.640;2022-07-18T04:59:25;4.40;;;1.85;;
20697;SDS011;10508;50.956;4.640;2022-07-18T05:01:50;3.47;;;1.85;;
20697;SDS011;10508;50.956;4.640;2022-07-18T05:04:16;3.08;;;1.88;;
20697;SDS011;10508;50.956;4.640;2022-07-18T05:06:42;4.78;;;1.75;;
20697;SDS011;10508;50.956;4.640;2022-07-18T05:09:07;11.25;;;3.00;;
20697;SDS011;10508;50.956;4.640;2022-07-18T05:11:33;7.88;;;2.60;;
20697;SDS011;10508;50.956;4.640;2022-07-18T05:13:59;3.03;;;1.70;;
20697;SDS011;10508;50.956;4.640;2022-07-18T05:16:24;3.67;;;2.17;;
20697;SDS011;10508;50.956;4.640;2022-07-18T05:18:50;6.63;;;2.53;;
20697;SDS011;10508;50.956;4.640;2022-07-18T05:21:16;5.47;;;2.47;;
20697;SDS011;10508;50.956;4.640;2022-07-18T05:23:42;9.75;;;2.58;;
20697;SDS011;10508;50.956;4.640;2022-07-18T05:26:07;4.60;;;2.10;;
20697;SDS011;10508;50.956;4.640;2022-07-18T05:28:33;4.97;;;2.10;;
20697;SDS011;10508;50.956;4.640;2022-07-18T05:30:58;6.88;;;2.47;;
20697;SDS011;10508;50.956;4.640;2022-07-18T05:33:25;8.90;;;2.78;;
20697;SDS011;10508;50.956;4.640;2022-07-18T05:35:50;3.75;;;1.80;;
20697;SDS011;10508;50.956;4.640;2022-07-18T05:38:16;3.63;;;2.33;;
20697;SDS011;10508;50.956;4.640;2022-07-18T05:40:42;7.47;;;2.60;;
20697;SDS011;10508;50.956;4.640;2022-07-18T05:43:07;6.55;;;2.45;;
20697;SDS011;10508;50.956;4.640;2022-07-18T05:45:33;3.90;;;2.13;;
20697;SDS011;10508;50.956;4.640;2022-07-18T05:47:59;3.83;;;2.05;;
20697;SDS011;10508;50.956;4.640;2022-07-18T05:50:24;10.02;;;2.60;;
20697;SDS011;10508;50.956;4.640;2022-07-18T05:52:50;4.82;;;2.50;;
20697;SDS011;10508;50.956;4.640;2022-07-18T05:55:16;3.72;;;2.03;;
20697;SDS011;10508;50.956;4.640;2022-07-18T05:57:42;4.72;;;1.98;;
20697;SDS011;10508;50.956;4.640;2022-07-18T06:00:08;9.50;;;2.55;;
20697;SDS011;10508;50.956;4.640;2022-07-18T06:02:35;8.32;;;2.95;;
20697;SDS011;10508;50.956;4.640;2022-07-18T06:05:01;4.55;;;2.72;;
20697;SDS011;10508;50.956;4.640;2022-07-18T06:07:27;5.43;;;2.35;;
20697;SDS011;10508;50.956;4.640;2022-07-18T06:09:52;7.18;;;2.15;;
20697;SDS011;10508;50.956;4.640;2022-07-18T06:12:18;3.67;;;1.83;;
20697;SDS011;10508;50.956;4.640;2022-07-18T06:14:44;2.88;;;1.90;;
20697;SDS011;10508;50.956;4.640;2022-07-18T06:17:10;8.95;;;1.80;;
20697;SDS011;10508;50.956;4.640;2022-07-18T06:19:35;5.35;;;2.00;;
20697;SDS011;10508;50.956;4.640;2022-07-18T06:22:01;4.18;;;2.10;;
20697;SDS011;10508;50.956;4.640;2022-07-18T06:24:27;7.18;;;2.22;;
20697;SDS011;10508;50.956;4.640;2022-07-18T06:26:52;5.65;;;2.10;;
20697;SDS011;10508;50.956;4.640;2022-07-18T06:29:18;4.57;;;1.60;;
20697;SDS011;10508;50.956;4.640;2022-07-18T06:31:44;4.10;;;1.90;;
20697;SDS011;10508;50.956;4.640;2022-07-18T06:34:09;5.85;;;2.00;;
20697;SDS011;10508;50.956;4.640;2022-07-18T06:36:35;6.10;;;2.20;;
20697;SDS011;10508;50.956;4.640;2022-07-18T06:39:00;4.50;;;1.70;;
20697;SDS011;10508;50.956;4.640;2022-07-18T06:41:33;4.35;;;1.80;;
20697;SDS011;10508;50.956;4.640;2022-07-18T06:43:59;7.03;;;2.28;;
20697;SDS011;10508;50.956;4.640;2022-07-18T06:46:24;4.30;;;2.00;;
20697;SDS011;10508;50.956;4.640;2022-07-18T06:48:50;3.60;;;2.00;;
20697;SDS011;10508;50.956;4.640;2022-07-18T06:51:16;4.57;;;1.80;;
20697;SDS011;10508;50.956;4.640;2022-07-18T06:53:41;5.53;;;2.20;;
20697;SDS011;10508;50.956;4.640;2022-07-18T06:56:07;5.10;;;1.50;;
20697;SDS011;10508;50.956;4.640;2022-07-18T06:58:33;2.83;;;1.63;;
20697;SDS011;10508;50.956;4.640;2022-07-18T07:00:59;3.03;;;1.60;;
20697;SDS011;10508;50.956;4.640;2022-07-18T07:03:24;6.40;;;1.90;;
20697;SDS011;10508;50.956;4.640;2022-07-18T07:05:50;3.28;;;1.42;;
20697;SDS011;10508;50.956;4.640;2022-07-18T07:08:16;9.52;;;2.00;;
20697;SDS011;10508;50.956;4.640;2022-07-18T07:10:41;4.57;;;1.40;;
20697;SDS011;10508;50.956;4.640;2022-07-18T07:13:07;4.32;;;1.27;;
20697;SDS011;10508;50.956;4.640;2022-07-18T07:15:33;4.35;;;1.50;;
20697;SDS011;10508;50.956;4.640;2022-07-18T07:17:59;3.80;;;1.13;;
20697;SDS011;10508;50.956;4.640;2022-07-18T07:20:24;4.25;;;1.30;;
20697;SDS011;10508;50.956;4.640;2022-07-18T07:22:51;3.80;;;1.40;;
20697;SDS011;10508;50.956;4.640;2022-07-18T07:25:22;3.47;;;1.23;;
20697;SDS011;10508;50.956;4.640;2022-07-18T07:27:49;7.63;;;1.75;;
20697;SDS011;10508;50.956;4.640;2022-07-18T07:30:15;2.25;;;1.42;;
20697;SDS011;10508;50.956;4.640;2022-07-18T07:32:42;4.20;;;1.63;;
20697;SDS011;10508;50.956;4.640;2022-07-18T07:35:09;1.92;;;1.20;;
20697;SDS011;10508;50.956;4.640;2022-07-18T07:37:47;3.50;;;1.30;;
20697;SDS011;10508;50.956;4.640;2022-07-18T07:40:15;4.00;;;1.40;;
20697;SDS011;10508;50.956;4.640;2022-07-18T07:42:41;4.05;;;1.35;;
20697;SDS011;10508;50.956;4.640;2022-07-18T07:45:08;7.53;;;1.40;;
20697;SDS011;10508;50.956;4.640;2022-07-18T07:47:34;3.70;;;1.77;;
20697;SDS011;10508;50.956;4.640;2022-07-18T07:50:01;2.90;;;1.35;;
20697;SDS011;10508;50.956;4.640;2022-07-18T07:52:27;2.90;;;1.35;;
20697;SDS011;10508;50.956;4.640;2022-07-18T07:54:53;2.10;;;1.20;;
20697;SDS011;10508;50.956;4.640;2022-07-18T07:57:19;4.38;;;1.30;;
20697;SDS011;10508;50.956;4.640;2022-07-18T07:59:45;1.85;;;0.90;;
20697;SDS011;10508;50.956;4.640;2022-07-18T08:02:11;2.20;;;1.30;;
20697;SDS011;10508;50.956;4.640;2022-07-18T08:04:37;2.13;;;1.25;;
20697;SDS011;10508;50.956;4.640;2022-07-18T08:07:03;4.13;;;1.52;;
20697;SDS011;10508;50.956;4.640;2022-07-18T08:09:29;1.77;;;1.00;;
20697;SDS011;10508;50.956;4.640;2022-07-18T08:11:55;2.10;;;1.13;;
20697;SDS011;10508;50.956;4.640;2022-07-18T08:14:21;5.22;;;1.30;;
20697;SDS011;10508;50.956;4.640;2022-07-18T08:16:46;4.05;;;1.73;;
20697;SDS011;10508;50.956;4.640;2022-07-18T08:19:12;2.65;;;1.33;;
20697;SDS011;10508;50.956;4.640;2022-07-18T08:21:38;3.70;;;1.60;;
20697;SDS011;10508;50.956;4.640;2022-07-18T08:24:03;3.22;;;1.77;;
20697;SDS011;10508;50.956;4.640;2022-07-18T08:26:30;4.78;;;1.58;;
20697;SDS011;10508;50.956;4.640;2022-07-18T08:28:55;6.35;;;1.30;;
20697;SDS011;10508;50.956;4.640;2022-07-18T08:31:21;3.97;;;1.60;;
20697;SDS011;10508;50.956;4.640;2022-07-18T08:33:47;2.97;;;1.20;;
20697;SDS011;10508;50.956;4.640;2022-07-18T08:36:13;2.72;;;1.40;;
20697;SDS011;10508;50.956;4.640;2022-07-18T08:38:38;2.63;;;1.10;;
20697;SDS011;10508;50.956;4.640;2022-07-18T08:41:04;2.28;;;1.40;;
20697;SDS011;10508;50.956;4.640;2022-07-18T08:43:31;11.38;;;1.50;;
20697;SDS011;10508;50.956;4.640;2022-07-18T08:46:01;3.58;;;1.55;;
20697;SDS011;10508;50.956;4.640;2022-07-18T08:48:28;3.00;;;1.25;;
20697;SDS011;10508;50.956;4.640;2022-07-18T08:50:54;2.45;;;1.27;;
20697;SDS011;10508;50.956;4.640;2022-07-18T08:53:20;2.55;;;1.52;;
20697;SDS011;10508;50.956;4.640;2022-07-18T08:55:46;1.70;;;1.23;;
20697;SDS011;10508;50.956;4.640;2022-07-18T08:58:13;2.88;;;1.63;;
20697;SDS011;10508;50.956;4.640;2022-07-18T09:00:42;5.20;;;1.77;;
20697;SDS011;10508;50.956;4.640;2022-07-18T09:03:09;2.70;;;1.33;;
20697;SDS011;10508;50.956;4.640;2022-07-18T09:05:34;4.53;;;1.38;;
20697;SDS011;10508;50.956;4.640;2022-07-18T09:08:07;4.20;;;1.60;;
20697;SDS011;10508;50.956;4.640;2022-07-18T09:10:56;4.40;;;1.50;;
20697;SDS011;10508;50.956;4.640;2022-07-18T09:13:24;2.45;;;1.20;;
20697;SDS011;10508;50.956;4.640;2022-07-18T09:16:11;3.13;;;1.75;;
20697;SDS011;10508;50.956;4.640;2022-07-18T09:18:46;3.45;;;1.70;;
20697;SDS011;10508;50.956;4.640;2022-07-18T09:23:44;3.20;;;1.50;;
20697;SDS011;10508;50.956;4.640;2022-07-18T09:26:16;4.97;;;1.38;;
20697;SDS011;10508;50.956;4.640;2022-07-18T09:29:01;3.78;;;1.58;;
20697;SDS011;10508;50.956;4.640;2022-07-18T09:31:27;4.10;;;1.33;;
20697;SDS011;10508;50.956;4.640;2022-07-18T09:36:26;3.67;;;1.60;;
20697;SDS011;10508;50.956;4.640;2022-07-18T09:38:53;3.15;;;1.20;;
20697;SDS011;10508;50.956;4.640;2022-07-18T09:41:23;3.78;;;1.50;;
20697;SDS011;10508;50.956;4.640;2022-07-18T09:43:52;3.38;;;1.20;;
20697;SDS011;10508;50.956;4.640;2022-07-18T09:46:18;4.85;;;1.45;;
20697;SDS011;10508;50.956;4.640;2022-07-18T09:48:44;1.52;;;1.27;;
20697;SDS011;10508;50.956;4.640;2022-07-18T09:51:11;4.30;;;1.65;;
20697;SDS011;10508;50.956;4.640;2022-07-18T09:53:37;6.60;;;1.33;;
20697;SDS011;10508;50.956;4.640;2022-07-18T09:56:08;2.30;;;1.20;;
20697;SDS011;10508;50.956;4.640;2022-07-18T09:58:36;3.70;;;1.75;;
20697;SDS011;10508;50.956;4.640;2022-07-18T10:01:07;1.40;;;1.20;;
20697;SDS011;10508;50.956;4.640;2022-07-18T10:03:35;2.25;;;1.23;;
20697;SDS011;10508;50.956;4.640;2022-07-18T10:06:02;4.20;;;1.75;;
20697;SDS011;10508;50.956;4.640;2022-07-18T10:08:29;4.15;;;1.40;;
20697;SDS011;10508;50.956;4.640;2022-07-18T10:10:57;2.53;;;1.50;;
20697;SDS011;10508;50.956;4.640;2022-07-18T10:13:25;2.58;;;1.58;;
20697;SDS011;10508;50.956;4.640;2022-07-18T10:15:51;2.67;;;1.40;;
20697;SDS011;10508;50.956;4.640;2022-07-18T10:18:22;1.95;;;1.27;;
20697;SDS011;10508;50.956;4.640;2022-07-18T10:23:29;3.38;;;1.30;;
20697;SDS011;10508;50.956;4.640;2022-07-18T10:31:27;1.98;;;1.17;;
20697;SDS011;10508;50.956;4.640;2022-07-18T10:36:32;2.78;;;0.98;;
20697;SDS011;10508;50.956;4.640;2022-07-18T10:39:19;4.90;;;1.65;;
20697;SDS011;10508;50.956;4.640;2022-07-18T10:55:35;2.30;;;1.40;;
20697;SDS011;10508;50.956;4.640;2022-07-18T11:00:37;6.45;;;1.48;;
20697;SDS011;10508;50.956;4.640;2022-07-18T11:03:03;5.43;;;1.65;;
20697;SDS011;10508;50.956;4.640;2022-07-18T11:15:59;3.78;;;1.67;;
20697;SDS011;10508;50.956;4.640;2022-07-18T11:23:51;2.05;;;1.20;;
20697;SDS011;10508;50.956;4.640;2022-07-18T11:26:28;1.40;;;1.00;;
20697;SDS011;10508;50.956;4.640;2022-07-18T11:28:58;1.67;;;1.20;;
20697;SDS011;10508;50.956;4.640;2022-07-18T11:31:25;1.58;;;0.93;;
20697;SDS011;10508;50.956;4.640;2022-07-18T11:33:52;1.65;;;1.10;;
20697;SDS011;10508;50.956;4.640;2022-07-18T11:36:19;5.30;;;1.55;;
20697;SDS011;10508;50.956;4.640;2022-07-18T11:41:14;1.52;;;1.20;;
20697;SDS011;10508;50.956;4.640;2022-07-18T11:43:42;2.13;;;0.98;;
20697;SDS011;10508;50.956;4.640;2022-07-18T11:46:09;5.90;;;1.75;;
20697;SDS011;10508;50.956;4.640;2022-07-18T11:48:37;4.45;;;1.33;;
20697;SDS011;10508;50.956;4.640;2022-07-18T11:51:38;1.73;;;1.20;;
20697;SDS011;10508;50.956;4.640;2022-07-18T11:54:22;3.47;;;1.40;;
20697;SDS011;10508;50.956;4.640;2022-07-18T11:56:50;1.48;;;1.20;;
20697;SDS011;10508;50.956;4.640;2022-07-18T11:59:17;1.98;;;1.30;;
20697;SDS011;10508;50.956;4.640;2022-07-18T12:01:43;2.40;;;1.30;;
20697;SDS011;10508;50.956;4.640;2022-07-18T12:04:19;1.40;;;1.10;;
20697;SDS011;10508;50.956;4.640;2022-07-18T12:09:38;2.13;;;1.17;;
20697;SDS011;10508;50.956;4.640;2022-07-18T12:12:07;3.50;;;1.52;;
20697;SDS011;10508;50.956;4.640;2022-07-18T12:14:34;2.97;;;1.45;;
20697;SDS011;10508;50.956;4.640;2022-07-18T12:17:00;2.88;;;1.50;;
20697;SDS011;10508;50.956;4.640;2022-07-18T12:19:35;1.90;;;1.20;;
20697;SDS011;10508;50.956;4.640;2022-07-18T12:27:12;2.65;;;1.15;;
20697;SDS011;10508;50.956;4.640;2022-07-18T12:35:24;2.35;;;1.40;;
20697;SDS011;10508;50.956;4.640;2022-07-18T12:40:21;2.30;;;1.02;;
20697;SDS011;10508;50.956;4.640;2022-07-18T12:42:47;1.33;;;1.20;;
20697;SDS011;10508;50.956;4.640;2022-07-18T12:45:14;1.30;;;1.20;;
20697;SDS011;10508;50.956;4.640;2022-07-18T12:47:40;1.63;;;1.20;;
20697;SDS011;10508;50.956;4.640;2022-07-18T12:50:06;2.92;;;1.42;;
20697;SDS011;10508;50.956;4.640;2022-07-18T12:52:32;2.40;;;1.30;;
20697;SDS011;10508;50.956;4.640;2022-07-18T12:54:59;1.88;;;1.30;;
20697;SDS011;10508;50.956;4.640;2022-07-18T12:57:25;4.85;;;1.33;;
20697;SDS011;10508;50.956;4.640;2022-07-18T12:59:51;1.92;;;1.17;;
20697;SDS011;10508;50.956;4.640;2022-07-18T13:02:17;4.35;;;1.27;;
20697;SDS011;10508;50.956;4.640;2022-07-18T13:04:43;1.50;;;1.08;;
20697;SDS011;10508;50.956;4.640;2022-07-18T13:07:09;5.05;;;1.83;;
20697;SDS011;10508;50.956;4.640;2022-07-18T13:09:36;2.92;;;1.30;;
20697;SDS011;10508;50.956;4.640;2022-07-18T13:12:01;2.53;;;1.40;;
20697;SDS011;10508;50.956;4.640;2022-07-18T13:14:27;1.95;;;1.00;;
20697;SDS011;10508;50.956;4.640;2022-07-18T13:16:53;2.75;;;1.52;;
20697;SDS011;10508;50.956;4.640;2022-07-18T13:19:19;2.13;;;1.13;;
20697;SDS011;10508;50.956;4.640;2022-07-18T13:21:45;1.30;;;1.00;;
20697;SDS011;10508;50.956;4.640;2022-07-18T13:24:12;2.53;;;1.20;;
20697;SDS011;10508;50.956;4.640;2022-07-18T13:26:38;2.20;;;1.10;;
20697;SDS011;10508;50.956;4.640;2022-07-18T13:29:04;4.65;;;1.52;;
20697;SDS011;10508;50.956;4.640;2022-07-18T13:31:30;3.88;;;1.10;;
20697;SDS011;10508;50.956;4.640;2022-07-18T13:33:56;1.70;;;1.30;;
20697;SDS011;10508;50.956;4.640;2022-07-18T13:36:22;2.00;;;1.00;;
20697;SDS011;10508;50.956;4.640;2022-07-18T13:38:48;1.60;;;1.40;;
20697;SDS011;10508;50.956;4.640;2022-07-18T13:41:14;2.42;;;1.15;;
20697;SDS011;10508;50.956;4.640;2022-07-18T13:43:39;1.70;;;1.40;;
20697;SDS011;10508;50.956;4.640;2022-07-18T13:46:06;6.05;;;1.48;;
20697;SDS011;10508;50.956;4.640;2022-07-18T13:48:32;1.48;;;1.20;;
20697;SDS011;10508;50.956;4.640;2022-07-18T13:50:57;1.38;;;1.25;;
20697;SDS011;10508;50.956;4.640;2022-07-18T13:53:23;2.40;;;1.05;;
20697;SDS011;10508;50.956;4.640;2022-07-18T13:55:49;2.15;;;1.42;;
20697;SDS011;10508;50.956;4.640;2022-07-18T13:58:15;3.78;;;1.20;;
20697;SDS011;10508;50.956;4.640;2022-07-18T14:00:41;2.05;;;1.33;;
20697;SDS011;10508;50.956;4.640;2022-07-18T14:03:07;2.50;;;1.17;;
20697;SDS011;10508;50.956;4.640;2022-07-18T14:05:33;4.10;;;1.27;;
20697;SDS011;10508;50.956;4.640;2022-07-18T14:07:59;3.40;;;1.40;;
20697;SDS011;10508;50.956;4.640;2022-07-18T14:10:25;1.70;;;1.00;;
20697;SDS011;10508;50.956;4.640;2022-07-18T14:12:52;2.55;;;1.13;;
20697;SDS011;10508;50.956;4.640;2022-07-18T14:15:18;1.73;;;1.10;;
20697;SDS011;10508;50.956;4.640;2022-07-18T14:17:43;1.80;;;1.10;;
20697;SDS011;10508;50.956;4.640;2022-07-18T14:20:10;1.30;;;1.20;;
20697;SDS011;10508;50.956;4.640;2022-07-18T14:22:36;1.92;;;1.00;;
20697;SDS011;10508;50.956;4.640;2022-07-18T14:25:04;4.82;;;1.30;;
20697;SDS011;10508;50.956;4.640;2022-07-18T14:27:31;2.53;;;1.30;;
20697;SDS011;10508;50.956;4.640;2022-07-18T14:29:57;4.20;;;1.58;;
20697;SDS011;10508;50.956;4.640;2022-07-18T14:32:24;3.65;;;1.45;;
20697;SDS011;10508;50.956;4.640;2022-07-18T14:34:53;1.60;;;1.30;;
20697;SDS011;10508;50.956;4.640;2022-07-18T14:37:19;2.08;;;1.30;;
20697;SDS011;10508;50.956;4.640;2022-07-18T14:39:44;2.47;;;1.60;;
20697;SDS011;10508;50.956;4.640;2022-07-18T14:42:10;3.15;;;1.83;;
20697;SDS011;10508;50.956;4.640;2022-07-18T14:44:37;1.95;;;1.40;;
20697;SDS011;10508;50.956;4.640;2022-07-18T14:47:03;16.08;;;1.90;;
20697;SDS011;10508;50.956;4.640;2022-07-18T14:49:29;1.88;;;1.35;;
20697;SDS011;10508;50.956;4.640;2022-07-18T14:51:54;1.67;;;1.30;;
20697;SDS011;10508;50.956;4.640;2022-07-18T14:54:20;2.47;;;1.05;;
20697;SDS011;10508;50.956;4.640;2022-07-18T14:56:46;1.30;;;1.20;;
20697;SDS011;10508;50.956;4.640;2022-07-18T14:59:11;3.67;;;1.15;;
20697;SDS011;10508;50.956;4.640;2022-07-18T15:01:38;2.38;;;1.25;;
20697;SDS011;10508;50.956;4.640;2022-07-18T15:04:03;10.50;;;2.00;;
20697;SDS011;10508;50.956;4.640;2022-07-18T15:06:30;2.53;;;1.20;;
20697;SDS011;10508;50.956;4.640;2022-07-18T15:08:55;1.67;;;1.20;;
20697;SDS011;10508;50.956;4.640;2022-07-18T15:11:21;2.53;;;1.45;;
20697;SDS011;10508;50.956;4.640;2022-07-18T15:13:49;1.83;;;1.20;;
20697;SDS011;10508;50.956;4.640;2022-07-18T15:16:34;1.20;;;1.10;;
20697;SDS011;10508;50.956;4.640;2022-07-18T15:19:00;3.35;;;1.50;;
20697;SDS011;10508;50.956;4.640;2022-07-18T15:21:26;1.70;;;1.52;;
20697;SDS011;10508;50.956;4.640;2022-07-18T15:23:52;1.48;;;1.15;;
20697;SDS011;10508;50.956;4.640;2022-07-18T15:26:18;1.33;;;1.02;;
20697;SDS011;10508;50.956;4.640;2022-07-18T15:28:43;2.33;;;1.35;;
20697;SDS011;10508;50.956;4.640;2022-07-18T15:31:09;1.20;;;1.10;;
20697;SDS011;10508;50.956;4.640;2022-07-18T15:33:35;1.00;;;0.90;;
20697;SDS011;10508;50.956;4.640;2022-07-18T15:36:00;2.65;;;1.55;;
20697;SDS011;10508;50.956;4.640;2022-07-18T15:38:26;1.63;;;1.17;;
20697;SDS011;10508;50.956;4.640;2022-07-18T15:40:52;2.97;;;1.60;;
20697;SDS011;10508;50.956;4.640;2022-07-18T15:43:17;1.45;;;1.17;;
20697;SDS011;10508;50.956;4.640;2022-07-18T15:45:43;1.52;;;1.13;;
20697;SDS011;10508;50.956;4.640;2022-07-18T15:48:09;3.95;;;1.40;;
20697;SDS011;10508;50.956;4.640;2022-07-18T15:50:37;4.38;;;1.30;;
20697;SDS011;10508;50.956;4.640;2022-07-18T15:53:03;1.52;;;1.40;;
20697;SDS011;10508;50.956;4.640;2022-07-18T15:55:28;1.55;;;1.35;;